sensor_id;sensor_type;location;lat;lon;timestamp;temperature;humidity
25973;DHT22;13765;51.166;4.466;2022-10-12T00:01:28;7.80;99.90
25973;DHT22;13765;51.166;4.466;2022-10-12T00:03:56;7.80;99.90
25973;DHT22;13765;51.166;4.466;2022-10-12T00:06:25;7.70;99.90
25973;DHT22;13765;51.166;4.466;2022-10-12T00:08:54;7.70;99.90
25973;DHT22;13765;51.166;4.466;2022-10-12T00:11:23;7.70;99.90
25973;DHT22;13765;51.166;4.466;2022-10-12T00:13:51;7.70;99.90
25973;DHT22;13765;51.166;4.466;2022-10-12T00:16:19;7.80;99.90
25973;DHT22;13765;51.166;4.466;2022-10-12T00:18:51;7.70;99.90
25973;DHT22;13765;51.166;4.466;2022-10-12T00:21:19;7.60;99.90
25973;DHT22;13765;51.166;4.466;2022-10-12T00:23:45;7.60;99.90
25973;DHT22;13765;51.166;4.466;2022-10-12T00:26:22;7.60;99.90
25973;DHT22;13765;51.166;4.466;2022-10-12T00:28:55;7.60;99.90
25973;DHT22;13765;51.166;4.466;2022-10-12T00:31:21;7.60;99.90
25973;DHT22;13765;51.166;4.466;2022-10-12T00:33:48;7.60;99.90
25973;DHT22;13765;51.166;4.466;2022-10-12T00:36:25;7.50;99.90
25973;DHT22;13765;51.166;4.466;2022-10-12T00:38:53;7.50;99.90
25973;DHT22;13765;51.166;4.466;2022-10-12T00:41:27;7.50;99.90
25973;DHT22;13765;51.166;4.466;2022-10-12T00:43:54;7.60;99.90
25973;DHT22;13765;51.166;4.466;2022-10-12T00:46:34;7.50;99.90
25973;DHT22;13765;51.166;4.466;2022-10-12T00:49:13;7.60;99.90
25973;DHT22;13765;51.166;4.466;2022-10-12T00:51:42;7.50;99.90
25973;DHT22;13765;51.166;4.466;2022-10-12T00:54:13;7.50;99.90
25973;DHT22;13765;51.166;4.466;2022-10-12T00:56:43;7.50;99.90
25973;DHT22;13765;51.166;4.466;2022-10-12T00:59:15;7.50;99.90
25973;DHT22;13765;51.166;4.466;2022-10-12T01:01:43;7.50;99.90
25973;DHT22;13765;51.166;4.466;2022-10-12T01:04:12;7.50;99.90
25973;DHT22;13765;51.166;4.466;2022-10-12T01:06:38;7.50;99.90
25973;DHT22;13765;51.166;4.466;2022-10-12T01:09:07;7.40;99.90
25973;DHT22;13765;51.166;4.466;2022-10-12T01:11:35;7.40;99.90
25973;DHT22;13765;51.166;4.466;2022-10-12T01:14:03;7.40;99.90
25973;DHT22;13765;51.166;4.466;2022-10-12T01:16:49;7.40;99.90
25973;DHT22;13765;51.166;4.466;2022-10-12T01:22:33;7.40;99.90
25973;DHT22;13765;51.166;4.466;2022-10-12T01:25:17;7.30;99.90
25973;DHT22;13765;51.166;4.466;2022-10-12T01:27:52;7.30;99.90
25973;DHT22;13765;51.166;4.466;2022-10-12T01:30:32;7.20;99.90
25973;DHT22;13765;51.166;4.466;2022-10-12T01:33:47;7.20;99.90
25973;DHT22;13765;51.166;4.466;2022-10-12T01:36:25;7.20;99.90
25973;DHT22;13765;51.166;4.466;2022-10-12T01:44:20;7.10;99.90
25973;DHT22;13765;51.166;4.466;2022-10-12T01:46:47;7.10;99.90
25973;DHT22;13765;51.166;4.466;2022-10-12T01:49:16;7.10;99.90
25973;DHT22;13765;51.166;4.466;2022-10-12T01:51:54;7.10;99.90
25973;DHT22;13765;51.166;4.466;2022-10-12T01:54:27;7.00;99.90
25973;DHT22;13765;51.166;4.466;2022-10-12T01:59:52;7.00;99.90
25973;DHT22;13765;51.166;4.466;2022-10-12T02:05:04;6.90;99.90
25973;DHT22;13765;51.166;4.466;2022-10-12T02:08:04;7.00;99.90
25973;DHT22;13765;51.166;4.466;2022-10-12T02:10:53;6.90;99.90
25973;DHT22;13765;51.166;4.466;2022-10-12T02:13:21;7.00;99.90
25973;DHT22;13765;51.166;4.466;2022-10-12T02:15:52;6.90;99.90
25973;DHT22;13765;51.166;4.466;2022-10-12T02:18:25;6.90;99.90
25973;DHT22;13765;51.166;4.466;2022-10-12T02:20:53;6.90;99.90
25973;DHT22;13765;51.166;4.466;2022-10-12T02:23:23;6.80;99.90
25973;DHT22;13765;51.166;4.466;2022-10-12T02:25:51;6.90;99.90
25973;DHT22;13765;51.166;4.466;2022-10-12T02:28:21;6.90;99.90
25973;DHT22;13765;51.166;4.466;2022-10-12T02:31:00;6.90;99.90
25973;DHT22;13765;51.166;4.466;2022-10-12T02:33:34;6.90;99.90
25973;DHT22;13765;51.166;4.466;2022-10-12T02:36:19;7.00;99.90
25973;DHT22;13765;51.166;4.466;2022-10-12T02:38:57;6.80;99.90
25973;DHT22;13765;51.166;4.466;2022-10-12T02:41:28;6.80;99.90
25973;DHT22;13765;51.166;4.466;2022-10-12T02:44:05;6.80;99.90
25973;DHT22;13765;51.166;4.466;2022-10-12T02:46:36;6.80;99.90
25973;DHT22;13765;51.166;4.466;2022-10-12T02:49:04;6.80;99.90
25973;DHT22;13765;51.166;4.466;2022-10-12T02:51:33;6.80;99.90
25973;DHT22;13765;51.166;4.466;2022-10-12T02:54:00;6.80;99.90
25973;DHT22;13765;51.166;4.466;2022-10-12T02:56:26;6.80;99.90
25973;DHT22;13765;51.166;4.466;2022-10-12T02:58:55;6.80;99.90
25973;DHT22;13765;51.166;4.466;2022-10-12T03:01:23;6.80;99.90
25973;DHT22;13765;51.166;4.466;2022-10-12T03:03:49;6.80;99.90
25973;DHT22;13765;51.166;4.466;2022-10-12T03:06:17;6.80;99.90
25973;DHT22;13765;51.166;4.466;2022-10-12T03:08:47;6.80;99.90
25973;DHT22;13765;51.166;4.466;2022-10-12T03:11:13;6.80;99.90
25973;DHT22;13765;51.166;4.466;2022-10-12T03:13:39;6.80;99.90
25973;DHT22;13765;51.166;4.466;2022-10-12T03:16:10;6.80;99.90
25973;DHT22;13765;51.166;4.466;2022-10-12T03:18:39;7.00;99.90
25973;DHT22;13765;51.166;4.466;2022-10-12T03:21:06;6.90;99.90
25973;DHT22;13765;51.166;4.466;2022-10-12T03:23:31;6.80;99.90
25973;DHT22;13765;51.166;4.466;2022-10-12T03:25:58;6.80;99.90
25973;DHT22;13765;51.166;4.466;2022-10-12T03:28:26;6.80;99.90
25973;DHT22;13765;51.166;4.466;2022-10-12T03:30:54;7.00;99.90
25973;DHT22;13765;51.166;4.466;2022-10-12T03:33:20;6.90;99.90
25973;DHT22;13765;51.166;4.466;2022-10-12T03:35:46;6.90;99.90
25973;DHT22;13765;51.166;4.466;2022-10-12T03:38:15;6.90;99.90
25973;DHT22;13765;51.166;4.466;2022-10-12T03:40:44;6.90;99.90
25973;DHT22;13765;51.166;4.466;2022-10-12T03:43:11;6.90;99.90
25973;DHT22;13765;51.166;4.466;2022-10-12T03:45:39;6.90;99.90
25973;DHT22;13765;51.166;4.466;2022-10-12T03:48:08;6.90;99.90
25973;DHT22;13765;51.166;4.466;2022-10-12T03:50:34;6.90;99.90
25973;DHT22;13765;51.166;4.466;2022-10-12T03:53:02;6.90;99.90
25973;DHT22;13765;51.166;4.466;2022-10-12T03:55:31;6.90;99.90
25973;DHT22;13765;51.166;4.466;2022-10-12T03:57:58;6.90;99.90
25973;DHT22;13765;51.166;4.466;2022-10-12T04:00:24;6.90;99.90
25973;DHT22;13765;51.166;4.466;2022-10-12T04:02:54;6.90;99.90
25973;DHT22;13765;51.166;4.466;2022-10-12T04:05:23;7.00;99.90
25973;DHT22;13765;51.166;4.466;2022-10-12T04:07:49;7.00;99.90
25973;DHT22;13765;51.166;4.466;2022-10-12T04:10:15;6.90;99.90
25973;DHT22;13765;51.166;4.466;2022-10-12T04:12:41;6.90;99.90
25973;DHT22;13765;51.166;4.466;2022-10-12T04:15:08;6.90;99.90
25973;DHT22;13765;51.166;4.466;2022-10-12T04:17:34;6.90;99.90
25973;DHT22;13765;51.166;4.466;2022-10-12T04:19:59;6.90;99.90
25973;DHT22;13765;51.166;4.466;2022-10-12T04:22:26;6.90;99.90
25973;DHT22;13765;51.166;4.466;2022-10-12T04:24:54;6.80;99.90
25973;DHT22;13765;51.166;4.466;2022-10-12T04:27:20;6.80;99.90
25973;DHT22;13765;51.166;4.466;2022-10-12T04:29:48;6.80;99.90
25973;DHT22;13765;51.166;4.466;2022-10-12T04:32:14;6.90;99.90
25973;DHT22;13765;51.166;4.466;2022-10-12T04:34:43;6.80;99.90
25973;DHT22;13765;51.166;4.466;2022-10-12T04:37:10;6.80;99.90
25973;DHT22;13765;51.166;4.466;2022-10-12T04:39:45;6.80;99.90
25973;DHT22;13765;51.166;4.466;2022-10-12T04:42:12;6.80;99.90
25973;DHT22;13765;51.166;4.466;2022-10-12T04:44:38;6.80;99.90
25973;DHT22;13765;51.166;4.466;2022-10-12T04:47:04;6.80;99.90
25973;DHT22;13765;51.166;4.466;2022-10-12T04:49:30;6.80;99.90
25973;DHT22;13765;51.166;4.466;2022-10-12T04:51:58;6.80;99.90
25973;DHT22;13765;51.166;4.466;2022-10-12T04:54:24;6.80;99.90
25973;DHT22;13765;51.166;4.466;2022-10-12T04:56:52;6.80;99.90
25973;DHT22;13765;51.166;4.466;2022-10-12T04:59:21;6.80;99.90
25973;DHT22;13765;51.166;4.466;2022-10-12T05:01:51;6.70;99.90
25973;DHT22;13765;51.166;4.466;2022-10-12T05:04:18;6.70;99.90
25973;DHT22;13765;51.166;4.466;2022-10-12T05:06:45;6.70;99.90
25973;DHT22;13765;51.166;4.466;2022-10-12T05:09:12;6.70;99.90
25973;DHT22;13765;51.166;4.466;2022-10-12T05:11:38;6.70;99.90
25973;DHT22;13765;51.166;4.466;2022-10-12T05:14:08;6.70;99.90
25973;DHT22;13765;51.166;4.466;2022-10-12T05:16:34;6.60;99.90
25973;DHT22;13765;51.166;4.466;2022-10-12T05:19:02;6.60;99.90
25973;DHT22;13765;51.166;4.466;2022-10-12T05:21:32;6.60;99.90
25973;DHT22;13765;51.166;4.466;2022-10-12T05:23:58;6.60;99.90
25973;DHT22;13765;51.166;4.466;2022-10-12T05:26:24;6.60;99.90
25973;DHT22;13765;51.166;4.466;2022-10-12T05:28:50;6.50;99.90
25973;DHT22;13765;51.166;4.466;2022-10-12T05:31:16;6.50;99.90
25973;DHT22;13765;51.166;4.466;2022-10-12T05:33:44;6.50;99.90
25973;DHT22;13765;51.166;4.466;2022-10-12T05:36:10;6.40;99.90
25973;DHT22;13765;51.166;4.466;2022-10-12T05:38:36;6.40;99.90
25973;DHT22;13765;51.166;4.466;2022-10-12T05:41:04;6.40;99.90
25973;DHT22;13765;51.166;4.466;2022-10-12T05:43:30;6.40;99.90
25973;DHT22;13765;51.166;4.466;2022-10-12T05:45:56;6.40;99.90
25973;DHT22;13765;51.166;4.466;2022-10-12T05:48:22;6.30;99.90
25973;DHT22;13765;51.166;4.466;2022-10-12T05:50:51;6.30;99.90
25973;DHT22;13765;51.166;4.466;2022-10-12T05:53:20;6.30;99.90
25973;DHT22;13765;51.166;4.466;2022-10-12T05:55:53;6.20;99.90
25973;DHT22;13765;51.166;4.466;2022-10-12T05:58:21;6.20;99.90
25973;DHT22;13765;51.166;4.466;2022-10-12T06:00:50;6.20;99.90
25973;DHT22;13765;51.166;4.466;2022-10-12T06:03:16;6.20;99.90
25973;DHT22;13765;51.166;4.466;2022-10-12T06:05:47;6.30;99.90
25973;DHT22;13765;51.166;4.466;2022-10-12T06:08:13;6.30;99.90
25973;DHT22;13765;51.166;4.466;2022-10-12T06:10:48;6.20;99.90
25973;DHT22;13765;51.166;4.466;2022-10-12T06:13:15;6.20;99.90
25973;DHT22;13765;51.166;4.466;2022-10-12T06:15:46;6.20;99.90
25973;DHT22;13765;51.166;4.466;2022-10-12T06:18:13;6.20;99.90
25973;DHT22;13765;51.166;4.466;2022-10-12T06:20:39;6.20;99.90
25973;DHT22;13765;51.166;4.466;2022-10-12T06:23:06;6.20;99.90
25973;DHT22;13765;51.166;4.466;2022-10-12T06:25:31;6.40;99.90
25973;DHT22;13765;51.166;4.466;2022-10-12T06:27:57;6.30;99.90
25973;DHT22;13765;51.166;4.466;2022-10-12T06:30:22;6.30;99.90
25973;DHT22;13765;51.166;4.466;2022-10-12T06:32:48;6.40;99.90
25973;DHT22;13765;51.166;4.466;2022-10-12T06:35:17;6.40;99.90
25973;DHT22;13765;51.166;4.466;2022-10-12T06:37:50;6.50;99.90
25973;DHT22;13765;51.166;4.466;2022-10-12T06:40:19;6.50;99.90
25973;DHT22;13765;51.166;4.466;2022-10-12T06:42:50;6.60;99.90
25973;DHT22;13765;51.166;4.466;2022-10-12T06:45:19;6.60;99.90
25973;DHT22;13765;51.166;4.466;2022-10-12T06:47:47;6.60;99.90
25973;DHT22;13765;51.166;4.466;2022-10-12T06:50:12;6.70;99.90
25973;DHT22;13765;51.166;4.466;2022-10-12T06:52:38;6.70;99.90
25973;DHT22;13765;51.166;4.466;2022-10-12T06:55:04;6.80;99.90
25973;DHT22;13765;51.166;4.466;2022-10-12T06:57:30;6.80;99.90
25973;DHT22;13765;51.166;4.466;2022-10-12T06:59:58;6.80;99.90
25973;DHT22;13765;51.166;4.466;2022-10-12T07:02:24;6.90;99.90
25973;DHT22;13765;51.166;4.466;2022-10-12T07:04:51;7.00;99.90
25973;DHT22;13765;51.166;4.466;2022-10-12T07:07:17;7.00;99.90
25973;DHT22;13765;51.166;4.466;2022-10-12T07:09:46;7.00;99.90
25973;DHT22;13765;51.166;4.466;2022-10-12T07:12:12;7.20;99.90
25973;DHT22;13765;51.166;4.466;2022-10-12T07:14:40;7.20;99.90
25973;DHT22;13765;51.166;4.466;2022-10-12T07:17:09;7.30;99.90
25973;DHT22;13765;51.166;4.466;2022-10-12T07:19:37;7.40;99.90
25973;DHT22;13765;51.166;4.466;2022-10-12T07:22:05;7.50;99.90
25973;DHT22;13765;51.166;4.466;2022-10-12T07:24:31;7.70;99.90
25973;DHT22;13765;51.166;4.466;2022-10-12T07:27:04;7.80;99.90
25973;DHT22;13765;51.166;4.466;2022-10-12T07:29:33;7.90;99.90
25973;DHT22;13765;51.166;4.466;2022-10-12T07:31:59;8.00;99.90
25973;DHT22;13765;51.166;4.466;2022-10-12T07:34:28;8.20;99.90
25973;DHT22;13765;51.166;4.466;2022-10-12T07:36:57;8.40;99.90
25973;DHT22;13765;51.166;4.466;2022-10-12T07:39:23;8.50;99.90
25973;DHT22;13765;51.166;4.466;2022-10-12T07:41:49;8.60;99.90
25973;DHT22;13765;51.166;4.466;2022-10-12T07:44:15;8.70;99.90
25973;DHT22;13765;51.166;4.466;2022-10-12T07:46:44;8.80;99.90
25973;DHT22;13765;51.166;4.466;2022-10-12T07:49:14;8.80;99.90
25973;DHT22;13765;51.166;4.466;2022-10-12T07:51:40;9.00;99.90
25973;DHT22;13765;51.166;4.466;2022-10-12T07:54:07;9.10;99.90
25973;DHT22;13765;51.166;4.466;2022-10-12T07:56:36;9.30;99.90
25973;DHT22;13765;51.166;4.466;2022-10-12T07:59:01;9.40;99.90
25973;DHT22;13765;51.166;4.466;2022-10-12T08:01:30;9.50;99.90
25973;DHT22;13765;51.166;4.466;2022-10-12T08:03:57;9.60;99.90
25973;DHT22;13765;51.166;4.466;2022-10-12T08:06:26;9.70;99.90
25973;DHT22;13765;51.166;4.466;2022-10-12T08:08:52;9.80;99.90
25973;DHT22;13765;51.166;4.466;2022-10-12T08:11:19;9.90;99.90
25973;DHT22;13765;51.166;4.466;2022-10-12T08:13:48;9.90;99.90
25973;DHT22;13765;51.166;4.466;2022-10-12T08:16:17;10.00;99.90
25973;DHT22;13765;51.166;4.466;2022-10-12T08:18:45;10.00;99.90
25973;DHT22;13765;51.166;4.466;2022-10-12T08:21:13;10.00;99.90
25973;DHT22;13765;51.166;4.466;2022-10-12T08:23:39;9.90;99.90
25973;DHT22;13765;51.166;4.466;2022-10-12T08:26:06;9.90;99.90
25973;DHT22;13765;51.166;4.466;2022-10-12T08:28:34;10.00;99.90
25973;DHT22;13765;51.166;4.466;2022-10-12T08:31:05;10.10;99.90
25973;DHT22;13765;51.166;4.466;2022-10-12T08:33:31;10.20;99.90
25973;DHT22;13765;51.166;4.466;2022-10-12T08:36:00;10.30;99.90
25973;DHT22;13765;51.166;4.466;2022-10-12T08:38:27;10.40;99.90
25973;DHT22;13765;51.166;4.466;2022-10-12T08:41:27;10.60;99.90
25973;DHT22;13765;51.166;4.466;2022-10-12T08:46:31;11.00;99.90
25973;DHT22;13765;51.166;4.466;2022-10-12T08:49:13;11.40;99.90
25973;DHT22;13765;51.166;4.466;2022-10-12T08:52:02;11.90;99.90
25973;DHT22;13765;51.166;4.466;2022-10-12T08:54:38;12.00;99.90
25973;DHT22;13765;51.166;4.466;2022-10-12T08:57:18;12.30;99.90
25973;DHT22;13765;51.166;4.466;2022-10-12T08:59:45;12.40;99.90
25973;DHT22;13765;51.166;4.466;2022-10-12T09:05:00;12.70;99.90
25973;DHT22;13765;51.166;4.466;2022-10-12T09:07:53;13.00;99.90
25973;DHT22;13765;51.166;4.466;2022-10-12T09:10:42;13.10;99.90
25973;DHT22;13765;51.166;4.466;2022-10-12T09:16:17;13.70;99.90
25973;DHT22;13765;51.166;4.466;2022-10-12T09:18:47;13.80;99.90
25973;DHT22;13765;51.166;4.466;2022-10-12T09:21:18;14.10;99.90
25973;DHT22;13765;51.166;4.466;2022-10-12T09:23:48;14.20;99.90
25973;DHT22;13765;51.166;4.466;2022-10-12T09:26:19;14.40;99.90
25973;DHT22;13765;51.166;4.466;2022-10-12T09:28:52;14.60;99.90
25973;DHT22;13765;51.166;4.466;2022-10-12T09:33:58;14.50;99.90
25973;DHT22;13765;51.166;4.466;2022-10-12T09:36:28;14.70;99.90
25973;DHT22;13765;51.166;4.466;2022-10-12T09:39:01;14.90;99.90
25973;DHT22;13765;51.166;4.466;2022-10-12T09:41:33;14.90;99.90
25973;DHT22;13765;51.166;4.466;2022-10-12T09:44:03;15.00;99.90
25973;DHT22;13765;51.166;4.466;2022-10-12T09:46:40;14.80;99.90
25973;DHT22;13765;51.166;4.466;2022-10-12T09:49:06;14.60;99.90
25973;DHT22;13765;51.166;4.466;2022-10-12T09:51:32;14.80;99.90
25973;DHT22;13765;51.166;4.466;2022-10-12T09:54:00;14.80;99.90
25973;DHT22;13765;51.166;4.466;2022-10-12T09:56:34;15.00;99.90
25973;DHT22;13765;51.166;4.466;2022-10-12T10:04:29;15.30;99.90
25973;DHT22;13765;51.166;4.466;2022-10-12T10:07:22;15.50;99.90
25973;DHT22;13765;51.166;4.466;2022-10-12T10:12:59;15.40;99.90
25973;DHT22;13765;51.166;4.466;2022-10-12T10:15:30;15.60;99.90
25973;DHT22;13765;51.166;4.466;2022-10-12T10:18:01;15.80;99.90
25973;DHT22;13765;51.166;4.466;2022-10-12T10:22:59;15.90;99.90
25973;DHT22;13765;51.166;4.466;2022-10-12T10:25:27;16.00;99.90
25973;DHT22;13765;51.166;4.466;2022-10-12T10:28:21;16.10;99.90
25973;DHT22;13765;51.166;4.466;2022-10-12T10:30:56;16.00;99.90
25973;DHT22;13765;51.166;4.466;2022-10-12T10:33:29;15.90;99.90
25973;DHT22;13765;51.166;4.466;2022-10-12T10:36:28;16.10;99.90
25973;DHT22;13765;51.166;4.466;2022-10-12T10:39:02;16.50;99.90
25973;DHT22;13765;51.166;4.466;2022-10-12T10:41:38;16.40;99.90
25973;DHT22;13765;51.166;4.466;2022-10-12T10:44:16;16.40;99.90
25973;DHT22;13765;51.166;4.466;2022-10-12T10:46:44;16.20;99.90
25973;DHT22;13765;51.166;4.466;2022-10-12T10:49:24;16.30;99.90
25973;DHT22;13765;51.166;4.466;2022-10-12T10:51:53;16.50;99.90
25973;DHT22;13765;51.166;4.466;2022-10-12T11:00:13;17.40;99.90
25973;DHT22;13765;51.166;4.466;2022-10-12T11:02:54;17.70;99.90
25973;DHT22;13765;51.166;4.466;2022-10-12T11:07:57;17.70;99.90
25973;DHT22;13765;51.166;4.466;2022-10-12T11:10:33;17.40;99.90
25973;DHT22;13765;51.166;4.466;2022-10-12T11:13:12;17.30;99.90
25973;DHT22;13765;51.166;4.466;2022-10-12T11:16:02;17.20;99.90
25973;DHT22;13765;51.166;4.466;2022-10-12T11:18:49;17.30;99.90
25973;DHT22;13765;51.166;4.466;2022-10-12T11:24:22;17.20;99.90
25973;DHT22;13765;51.166;4.466;2022-10-12T11:27:34;17.30;99.90
25973;DHT22;13765;51.166;4.466;2022-10-12T11:29:40;17.40;99.90
25973;DHT22;13765;51.166;4.466;2022-10-12T11:32:25;17.20;99.90
25973;DHT22;13765;51.166;4.466;2022-10-12T11:35:04;17.10;99.90
25973;DHT22;13765;51.166;4.466;2022-10-12T11:38:01;17.20;99.90
25973;DHT22;13765;51.166;4.466;2022-10-12T11:40:30;17.00;99.90
25973;DHT22;13765;51.166;4.466;2022-10-12T11:43:04;17.20;99.90
25973;DHT22;13765;51.166;4.466;2022-10-12T11:45:38;17.50;99.90
25973;DHT22;13765;51.166;4.466;2022-10-12T11:48:14;17.80;99.90
25973;DHT22;13765;51.166;4.466;2022-10-12T11:50:44;17.90;99.90
25973;DHT22;13765;51.166;4.466;2022-10-12T11:53:30;17.60;99.90
25973;DHT22;13765;51.166;4.466;2022-10-12T11:56:37;17.50;99.90
25973;DHT22;13765;51.166;4.466;2022-10-12T11:59:13;17.70;99.90
25973;DHT22;13765;51.166;4.466;2022-10-12T12:04:29;17.90;99.90
25973;DHT22;13765;51.166;4.466;2022-10-12T12:09:49;18.10;99.90
25973;DHT22;13765;51.166;4.466;2022-10-12T12:12:22;17.90;99.90
25973;DHT22;13765;51.166;4.466;2022-10-12T12:17:24;17.80;99.90
25973;DHT22;13765;51.166;4.466;2022-10-12T12:19:52;17.60;99.90
25973;DHT22;13765;51.166;4.466;2022-10-12T12:22:27;17.60;99.90
25973;DHT22;13765;51.166;4.466;2022-10-12T12:30:31;17.30;99.90
25973;DHT22;13765;51.166;4.466;2022-10-12T12:35:57;17.10;99.90
25973;DHT22;13765;51.166;4.466;2022-10-12T12:38:37;17.10;99.90
25973;DHT22;13765;51.166;4.466;2022-10-12T12:43:39;17.20;99.90
25973;DHT22;13765;51.166;4.466;2022-10-12T12:46:15;17.20;99.90
25973;DHT22;13765;51.166;4.466;2022-10-12T12:51:09;17.30;99.90
25973;DHT22;13765;51.166;4.466;2022-10-12T12:53:39;17.50;99.90
25973;DHT22;13765;51.166;4.466;2022-10-12T12:59:48;17.70;99.90
25973;DHT22;13765;51.166;4.466;2022-10-12T13:18:52;17.10;99.90
25973;DHT22;13765;51.166;4.466;2022-10-12T13:21:43;17.00;99.90
25973;DHT22;13765;51.166;4.466;2022-10-12T13:24:24;16.80;99.90
25973;DHT22;13765;51.166;4.466;2022-10-12T13:26:54;16.70;99.90
25973;DHT22;13765;51.166;4.466;2022-10-12T13:29:33;16.60;99.90
25973;DHT22;13765;51.166;4.466;2022-10-12T13:32:02;16.60;99.90
25973;DHT22;13765;51.166;4.466;2022-10-12T13:34:39;16.50;99.90
25973;DHT22;13765;51.166;4.466;2022-10-12T13:37:14;16.50;99.90
25973;DHT22;13765;51.166;4.466;2022-10-12T13:39:44;16.40;99.90
25973;DHT22;13765;51.166;4.466;2022-10-12T13:42:21;16.40;99.90
25973;DHT22;13765;51.166;4.466;2022-10-12T13:44:49;16.40;99.90
25973;DHT22;13765;51.166;4.466;2022-10-12T13:47:26;16.40;99.90
25973;DHT22;13765;51.166;4.466;2022-10-12T13:49:55;16.70;99.90
25973;DHT22;13765;51.166;4.466;2022-10-12T13:52:32;16.80;99.90
25973;DHT22;13765;51.166;4.466;2022-10-12T13:54:59;16.70;99.90
25973;DHT22;13765;51.166;4.466;2022-10-12T13:57:43;16.90;99.90
25973;DHT22;13765;51.166;4.466;2022-10-12T14:02:52;17.00;99.90
25973;DHT22;13765;51.166;4.466;2022-10-12T14:05:25;17.10;99.90
25973;DHT22;13765;51.166;4.466;2022-10-12T14:07:53;17.30;99.90
25973;DHT22;13765;51.166;4.466;2022-10-12T14:10:36;17.30;99.90
25973;DHT22;13765;51.166;4.466;2022-10-12T14:13:12;17.30;99.90
25973;DHT22;13765;51.166;4.466;2022-10-12T14:15:40;17.40;99.90
25973;DHT22;13765;51.166;4.466;2022-10-12T14:18:42;17.60;99.90
25973;DHT22;13765;51.166;4.466;2022-10-12T14:21:26;17.60;99.90
25973;DHT22;13765;51.166;4.466;2022-10-12T14:24:07;17.70;99.90
25973;DHT22;13765;51.166;4.466;2022-10-12T14:26:39;17.60;99.90
25973;DHT22;13765;51.166;4.466;2022-10-12T14:29:31;17.60;99.90
25973;DHT22;13765;51.166;4.466;2022-10-12T14:31:59;17.40;99.90
25973;DHT22;13765;51.166;4.466;2022-10-12T14:34:31;17.40;99.90
25973;DHT22;13765;51.166;4.466;2022-10-12T14:39:28;17.20;99.90
25973;DHT22;13765;51.166;4.466;2022-10-12T14:42:01;17.40;99.90
25973;DHT22;13765;51.166;4.466;2022-10-12T14:44:41;17.30;99.90
25973;DHT22;13765;51.166;4.466;2022-10-12T14:47:36;17.30;99.90
25973;DHT22;13765;51.166;4.466;2022-10-12T14:50:07;17.20;99.90
25973;DHT22;13765;51.166;4.466;2022-10-12T14:52:48;17.00;99.90
25973;DHT22;13765;51.166;4.466;2022-10-12T14:55:22;16.90;99.90
25973;DHT22;13765;51.166;4.466;2022-10-12T14:57:51;16.90;99.90
25973;DHT22;13765;51.166;4.466;2022-10-12T15:00:29;16.90;99.90
25973;DHT22;13765;51.166;4.466;2022-10-12T15:02:58;16.80;99.90
25973;DHT22;13765;51.166;4.466;2022-10-12T15:05:26;16.80;99.90
25973;DHT22;13765;51.166;4.466;2022-10-12T15:07:58;16.90;99.90
25973;DHT22;13765;51.166;4.466;2022-10-12T15:10:26;17.00;99.90
25973;DHT22;13765;51.166;4.466;2022-10-12T15:12:53;17.00;99.90
25973;DHT22;13765;51.166;4.466;2022-10-12T15:15:38;17.00;99.90
25973;DHT22;13765;51.166;4.466;2022-10-12T15:18:04;16.90;99.90
25973;DHT22;13765;51.166;4.466;2022-10-12T15:20:31;16.80;99.90
25973;DHT22;13765;51.166;4.466;2022-10-12T15:23:00;16.70;99.90
25973;DHT22;13765;51.166;4.466;2022-10-12T15:25:53;16.60;99.90
25973;DHT22;13765;51.166;4.466;2022-10-12T15:28:23;16.50;99.90
25973;DHT22;13765;51.166;4.466;2022-10-12T15:30:52;16.60;99.90
25973;DHT22;13765;51.166;4.466;2022-10-12T15:33:20;16.50;99.90
25973;DHT22;13765;51.166;4.466;2022-10-12T15:35:49;16.40;99.90
25973;DHT22;13765;51.166;4.466;2022-10-12T15:38:17;16.20;99.90
25973;DHT22;13765;51.166;4.466;2022-10-12T15:40:46;16.20;99.90
25973;DHT22;13765;51.166;4.466;2022-10-12T15:43:12;16.10;99.90
25973;DHT22;13765;51.166;4.466;2022-10-12T15:45:41;16.00;99.90
25973;DHT22;13765;51.166;4.466;2022-10-12T15:48:08;15.90;99.90
25973;DHT22;13765;51.166;4.466;2022-10-12T15:50:44;16.00;99.90
25973;DHT22;13765;51.166;4.466;2022-10-12T15:53:23;15.90;99.90
25973;DHT22;13765;51.166;4.466;2022-10-12T15:55:53;15.80;99.90
25973;DHT22;13765;51.166;4.466;2022-10-12T15:58:20;15.60;99.90
25973;DHT22;13765;51.166;4.466;2022-10-12T16:00:47;15.70;99.90
25973;DHT22;13765;51.166;4.466;2022-10-12T16:03:18;15.60;99.90
25973;DHT22;13765;51.166;4.466;2022-10-12T16:05:44;15.70;99.90
25973;DHT22;13765;51.166;4.466;2022-10-12T16:08:13;15.80;99.90
25973;DHT22;13765;51.166;4.466;2022-10-12T16:10:40;15.70;99.90
25973;DHT22;13765;51.166;4.466;2022-10-12T16:13:07;15.70;99.90
25973;DHT22;13765;51.166;4.466;2022-10-12T16:15:35;15.80;99.90
25973;DHT22;13765;51.166;4.466;2022-10-12T16:18:02;15.80;99.90
25973;DHT22;13765;51.166;4.466;2022-10-12T16:20:32;15.70;99.90
25973;DHT22;13765;51.166;4.466;2022-10-12T16:22:59;15.70;99.90
25973;DHT22;13765;51.166;4.466;2022-10-12T16:25:27;15.70;99.90
25973;DHT22;13765;51.166;4.466;2022-10-12T16:27:55;15.70;99.90
25973;DHT22;13765;51.166;4.466;2022-10-12T16:30:25;15.80;99.90
25973;DHT22;13765;51.166;4.466;2022-10-12T16:32:54;15.80;99.90
25973;DHT22;13765;51.166;4.466;2022-10-12T16:35:20;15.80;99.90
25973;DHT22;13765;51.166;4.466;2022-10-12T16:37:46;15.80;99.90
25973;DHT22;13765;51.166;4.466;2022-10-12T16:40:13;15.70;99.90
25973;DHT22;13765;51.166;4.466;2022-10-12T16:42:39;15.60;99.90
25973;DHT22;13765;51.166;4.466;2022-10-12T16:45:05;15.50;99.90
25973;DHT22;13765;51.166;4.466;2022-10-12T16:47:31;15.40;99.90
25973;DHT22;13765;51.166;4.466;2022-10-12T16:50:02;15.30;99.90
25973;DHT22;13765;51.166;4.466;2022-10-12T16:52:31;15.10;99.90
25973;DHT22;13765;51.166;4.466;2022-10-12T16:55:00;15.00;99.90
25973;DHT22;13765;51.166;4.466;2022-10-12T16:57:28;14.90;99.90
25973;DHT22;13765;51.166;4.466;2022-10-12T16:59:54;14.70;99.90
25973;DHT22;13765;51.166;4.466;2022-10-12T17:02:21;14.60;99.90
25973;DHT22;13765;51.166;4.466;2022-10-12T17:04:49;14.50;99.90
25973;DHT22;13765;51.166;4.466;2022-10-12T17:07:15;14.40;99.90
25973;DHT22;13765;51.166;4.466;2022-10-12T17:09:44;14.20;99.90
25973;DHT22;13765;51.166;4.466;2022-10-12T17:12:13;14.10;99.90
25973;DHT22;13765;51.166;4.466;2022-10-12T17:14:39;14.10;99.90
25973;DHT22;13765;51.166;4.466;2022-10-12T17:17:07;14.00;99.90
25973;DHT22;13765;51.166;4.466;2022-10-12T17:19:35;14.00;99.90
25973;DHT22;13765;51.166;4.466;2022-10-12T17:22:06;13.90;99.90
25973;DHT22;13765;51.166;4.466;2022-10-12T17:24:35;13.80;99.90
25973;DHT22;13765;51.166;4.466;2022-10-12T17:27:04;13.70;99.90
25973;DHT22;13765;51.166;4.466;2022-10-12T17:29:31;13.70;99.90
25973;DHT22;13765;51.166;4.466;2022-10-12T17:31:57;13.70;99.90
25973;DHT22;13765;51.166;4.466;2022-10-12T17:34:29;13.60;99.90
25973;DHT22;13765;51.166;4.466;2022-10-12T17:36:57;13.50;99.90